Time;durP1;ratioP1;P1;durP2;ratioP2;P2;SDS_P1;SDS_P2;PMS_P1;PMS_P2;Temp;Humidity;BMP_temperature;BMP_pressure;BME280_temperature;BME280_humidity;BME280_pressure;Samples;Min_cycle;Max_cycle;Signal;HPM_P1;HPM_P2
2022/10/20 00:00:02;;;;;;;14.47;5.77;;;;;;;-141.59;100.00;61776.25;5047906;28;20290;-83
2022/10/20 00:02:33;;;;;;;8.23;5.33;;;;;;;-141.59;100.00;61776.25;5023472;28;20203;-84
2022/10/20 00:05:00;;;;;;;11.47;6.13;;;;;;;-141.59;100.00;61776.25;5026137;28;20246;-83
2022/10/20 00:07:27;;;;;;;12.23;5.90;;;;;;;-141.59;100.00;61776.25;5032933;28;20223;-85
2022/10/20 00:09:54;;;;;;;12.53;5.20;;;;;;;-141.59;100.00;61776.25;5025838;28;20233;-84
2022/10/20 00:12:21;;;;;;;11.37;5.57;;;;;;;-141.59;100.00;61776.25;5027372;28;20217;-84
2022/10/20 00:14:48;;;;;;;9.93;5.20;;;;;;;-141.59;100.00;61776.25;5020737;28;20210;-84
2022/10/20 00:17:15;;;;;;;8.07;5.13;;;;;;;-141.59;100.00;61776.25;5015115;28;20199;-84
2022/10/20 00:19:47;;;;;;;12.77;6.07;;;;;;;-141.59;100.00;61776.25;5035191;28;20234;-84
2022/10/20 00:22:15;;;;;;;8.63;5.17;;;;;;;-141.59;100.00;61776.25;5025069;28;20200;-84
2022/10/20 00:24:42;;;;;;;9.43;5.30;;;;;;;-141.59;100.00;61776.25;5031916;28;20381;-83
2022/10/20 00:27:09;;;;;;;10.03;6.00;;;;;;;-141.59;100.00;61776.25;5040452;28;20241;-85
2022/10/20 00:29:36;;;;;;;7.43;4.90;;;;;;;-141.59;100.00;61776.25;5022477;28;20237;-84
2022/10/20 00:32:04;;;;;;;10.03;5.13;;;;;;;-141.59;100.00;61776.25;5034865;28;20201;-84
2022/10/20 00:34:31;;;;;;;12.90;5.67;;;;;;;-141.59;100.00;61776.25;5021445;28;20222;-84
2022/10/20 00:36:59;;;;;;;8.80;5.37;;;;;;;-141.59;100.00;61776.25;5027626;28;20203;-84
2022/10/20 00:39:26;;;;;;;9.43;5.60;;;;;;;-141.59;100.00;61776.25;5036503;28;20199;-84
2022/10/20 00:41:53;;;;;;;8.13;5.37;;;;;;;-141.59;100.00;61776.25;5023477;28;20290;-84
2022/10/20 00:44:50;;;;;;;10.27;5.70;;;;;;;-141.59;100.00;61776.25;5021235;28;20276;-84
2022/10/20 00:47:22;;;;;;;11.60;4.87;;;;;;;-141.59;100.00;61776.25;5040075;28;20223;-84
2022/10/20 00:49:50;;;;;;;11.87;5.37;;;;;;;-141.59;100.00;61776.25;5020461;28;20206;-84
2022/10/20 00:52:22;;;;;;;10.17;5.40;;;;;;;-141.59;100.00;61776.25;5024546;28;20199;-84
2022/10/20 00:54:50;;;;;;;12.33;5.67;;;;;;;-141.59;100.00;61776.25;5026098;28;20190;-84
2022/10/20 00:57:17;;;;;;;8.00;5.60;;;;;;;-141.59;100.00;61776.25;5029273;28;20206;-84
2022/10/20 00:59:45;;;;;;;9.67;5.20;;;;;;;-141.59;100.00;61776.25;5044306;28;20242;-82
2022/10/20 01:02:13;;;;;;;6.10;4.77;;;;;;;-141.59;100.00;61776.25;5035453;28;20206;-84
2022/10/20 01:04:41;;;;;;;11.83;5.67;;;;;;;-141.59;100.00;61776.25;5032210;28;20226;-84
2022/10/20 01:07:08;;;;;;;12.60;5.50;;;;;;;-141.59;100.00;61776.25;5034433;28;20224;-83
2022/10/20 01:09:37;;;;;;;9.23;5.00;;;;;;;-141.59;100.00;61776.25;5034617;28;20203;-84
2022/10/20 01:12:15;;;;;;;10.13;5.47;;;;;;;-141.59;100.00;61776.25;5027538;28;20241;-83
2022/10/20 01:14:49;;;;;;;7.93;4.57;;;;;;;-141.59;100.00;61776.25;5015971;28;20214;-84
2022/10/20 01:17:28;;;;;;;11.60;5.37;;;;;;;-141.59;100.00;61776.25;5038820;28;20219;-83
2022/10/20 01:20:37;;;;;;;8.33;5.03;;;;;;;-141.59;100.00;61776.25;5036710;28;20213;-83
2022/10/20 01:23:56;;;;;;;7.10;4.80;;;;;;;-141.59;100.00;61776.25;5018827;28;20210;-84
2022/10/20 01:27:02;;;;;;;8.43;5.33;;;;;;;-141.59;100.00;61776.25;5015531;28;20227;-84
2022/10/20 01:29:36;;;;;;;8.03;4.87;;;;;;;-141.59;100.00;61776.25;5040979;28;20253;-84
2022/10/20 01:32:10;;;;;;;10.20;4.77;;;;;;;-141.59;100.00;61776.25;5024841;28;20213;-84
2022/10/20 01:34:46;;;;;;;10.90;4.70;;;;;;;-141.59;100.00;61776.25;5020906;28;20207;-84
2022/10/20 01:37:17;;;;;;;6.13;4.60;;;;;;;-141.59;100.00;61776.25;5036812;28;20297;-84
2022/10/20 01:39:50;;;;;;;6.27;4.70;;;;;;;-141.59;100.00;61776.25;5026901;28;20257;-84
2022/10/20 01:42:22;;;;;;;10.00;4.87;;;;;;;-141.59;100.00;61776.25;5026025;28;20286;-84
2022/10/20 01:44:54;;;;;;;11.77;5.17;;;;;;;-141.59;100.00;61776.25;5036955;28;20215;-85
2022/10/20 01:47:24;;;;;;;11.70;5.30;;;;;;;-141.59;100.00;61776.25;5045978;28;20218;-84
2022/10/20 01:49:55;;;;;;;8.03;5.00;;;;;;;-141.59;100.00;61776.25;5024759;28;20207;-84
2022/10/20 01:52:23;;;;;;;9.03;4.83;;;;;;;-141.59;100.00;61776.25;5039724;28;20230;-84
2022/10/20 01:54:50;;;;;;;8.17;5.00;;;;;;;-141.59;100.00;61776.25;5032927;28;20231;-84
2022/10/20 01:57:32;;;;;;;11.27;5.20;;;;;;;-141.59;100.00;61776.25;5045365;28;20214;-85
2022/10/20 02:00:08;;;;;;;9.30;5.23;;;;;;;-141.59;100.00;61776.25;5023009;28;20266;-83
2022/10/20 02:02:50;;;;;;;7.63;4.67;;;;;;;-141.59;100.00;61776.25;5031269;28;20191;-84
2022/10/20 02:05:32;;;;;;;9.70;4.93;;;;;;;-141.59;100.00;61776.25;5020737;28;20203;-84
2022/10/20 02:08:11;;;;;;;8.50;5.37;;;;;;;-141.59;100.00;61776.25;5030638;28;20238;-84
2022/10/20 02:10:45;;;;;;;8.30;4.97;;;;;;;-141.59;100.00;61776.25;5037091;28;20239;-84
2022/10/20 02:13:14;;;;;;;9.60;5.30;;;;;;;-141.59;100.00;61776.25;5030202;28;20297;-84
2022/10/20 02:15:48;;;;;;;8.77;5.13;;;;;;;-141.59;100.00;61776.25;5037582;28;20206;-84
2022/10/20 02:18:20;;;;;;;9.00;5.07;;;;;;;-141.59;100.00;61776.25;5039398;28;20226;-84
2022/10/20 02:20:52;;;;;;;7.63;4.80;;;;;;;-141.59;100.00;61776.25;5018459;28;20215;-84
2022/10/20 02:23:19;;;;;;;9.63;5.10;;;;;;;-141.59;100.00;61776.25;5032796;28;20212;-84
2022/10/20 02:25:50;;;;;;;13.67;4.73;;;;;;;-141.59;100.00;61776.25;5028691;28;20202;-84
2022/10/20 02:28:18;;;;;;;9.13;5.20;;;;;;;-141.59;100.00;61776.25;5030386;28;20253;-84
2022/10/20 02:30:48;;;;;;;12.53;4.90;;;;;;;-141.59;100.00;61776.25;5030556;28;20207;-84
2022/10/20 02:33:16;;;;;;;6.73;4.67;;;;;;;-141.59;100.00;61776.25;5016753;28;20208;-84
2022/10/20 02:35:50;;;;;;;8.97;5.20;;;;;;;-141.59;100.00;61776.25;5043960;28;20203;-84
2022/10/20 02:38:17;;;;;;;13.73;5.17;;;;;;;-141.59;100.00;61776.25;5036219;28;20227;-84
2022/10/20 02:40:44;;;;;;;9.63;5.37;;;;;;;-141.59;100.00;61776.25;5040252;28;20250;-84
2022/10/20 02:43:12;;;;;;;9.07;4.87;;;;;;;-141.59;100.00;61776.25;5027103;28;20234;-84
2022/10/20 02:45:39;;;;;;;10.83;5.37;;;;;;;-141.59;100.00;61776.25;5029266;28;20196;-84
2022/10/20 02:48:09;;;;;;;12.37;5.50;;;;;;;-141.59;100.00;61776.25;5041340;28;20219;-84
2022/10/20 02:50:36;;;;;;;7.87;5.03;;;;;;;-141.59;100.00;61776.25;5043094;28;20220;-84
2022/10/20 02:53:04;;;;;;;14.33;5.57;;;;;;;-141.59;100.00;61776.25;5025346;28;20212;-82
2022/10/20 02:55:31;;;;;;;11.20;5.33;;;;;;;-141.59;100.00;61776.25;5040446;28;20227;-84
2022/10/20 02:57:58;;;;;;;7.63;5.00;;;;;;;-141.59;100.00;61776.25;5029541;28;20199;-82
2022/10/20 03:00:29;;;;;;;8.07;5.37;;;;;;;-141.59;100.00;61776.25;5030706;28;20254;-83
2022/10/20 03:02:57;;;;;;;9.10;5.23;;;;;;;-141.59;100.00;61776.25;5030846;28;20210;-85
2022/10/20 03:05:25;;;;;;;12.17;5.30;;;;;;;-141.59;100.00;61776.25;5023156;28;20214;-84
2022/10/20 03:07:53;;;;;;;10.30;5.13;;;;;;;-141.59;100.00;61776.25;5023951;28;20217;-83
2022/10/20 03:10:20;;;;;;;11.87;5.07;;;;;;;-141.59;100.00;61776.25;5016140;28;20227;-85
2022/10/20 03:12:47;;;;;;;9.57;4.50;;;;;;;-141.59;100.00;61776.25;5020682;28;20235;-84
2022/10/20 03:15:14;;;;;;;12.03;5.20;;;;;;;-141.59;100.00;61776.25;5046315;28;20294;-84
2022/10/20 03:17:41;;;;;;;9.60;5.33;;;;;;;-141.59;100.00;61776.25;5025028;28;20219;-84
2022/10/20 03:20:09;;;;;;;7.87;6.10;;;;;;;-141.59;100.00;61776.25;5024848;28;20199;-84
2022/10/20 03:22:38;;;;;;;11.73;6.00;;;;;;;-141.59;100.00;61776.25;5026184;28;20226;-84
2022/10/20 03:25:08;;;;;;;9.00;4.97;;;;;;;-141.59;100.00;61776.25;5031583;28;20203;-85
2022/10/20 03:27:35;;;;;;;10.93;6.23;;;;;;;-141.59;100.00;61776.25;5023193;28;20202;-85
2022/10/20 03:30:03;;;;;;;13.37;5.80;;;;;;;-141.59;100.00;61776.25;5036634;28;20194;-85
2022/10/20 03:32:30;;;;;;;11.07;5.53;;;;;;;-141.59;100.00;61776.25;5020617;28;20214;-84
2022/10/20 03:34:57;;;;;;;9.87;6.07;;;;;;;-141.59;100.00;61776.25;5037289;28;20202;-84
2022/10/20 03:37:25;;;;;;;11.67;6.10;;;;;;;-141.59;100.00;61776.25;5039097;28;20255;-84
2022/10/20 03:39:53;;;;;;;10.70;6.17;;;;;;;-141.59;100.00;61776.25;5015542;28;20199;-84
2022/10/20 03:42:20;;;;;;;10.47;5.83;;;;;;;-141.59;100.00;61776.25;5027812;28;20223;-84
2022/10/20 03:44:47;;;;;;;10.17;6.03;;;;;;;-141.59;100.00;61776.25;5033819;28;20198;-85
2022/10/20 03:47:15;;;;;;;12.97;7.37;;;;;;;-141.59;100.00;61776.25;5038065;28;20207;-84
2022/10/20 03:49:42;;;;;;;14.83;6.53;;;;;;;-141.59;100.00;61776.25;5025795;28;20229;-84
2022/10/20 03:52:09;;;;;;;11.10;7.00;;;;;;;-141.59;100.00;61776.25;5019884;28;20282;-84
2022/10/20 03:54:36;;;;;;;15.87;7.90;;;;;;;-141.59;100.00;61776.25;5023535;28;20187;-84
2022/10/20 03:57:05;;;;;;;21.30;8.77;;;;;;;-141.59;100.00;61776.25;5024177;28;20214;-85
2022/10/20 03:59:32;;;;;;;15.70;7.87;;;;;;;-141.59;100.00;61776.25;5022193;28;20210;-84
2022/10/20 04:01:59;;;;;;;17.37;8.63;;;;;;;-141.59;100.00;61776.25;5015561;28;20218;-84
2022/10/20 04:04:26;;;;;;;22.00;9.23;;;;;;;-141.59;100.00;61776.25;5044417;28;20261;-84
2022/10/20 04:06:53;;;;;;;16.83;8.90;;;;;;;-141.59;100.00;61776.25;5026033;28;20265;-82
2022/10/20 04:09:20;;;;;;;21.33;10.57;;;;;;;-141.59;100.00;61776.25;5031476;28;20221;-84
2022/10/20 04:11:47;;;;;;;21.33;9.97;;;;;;;-141.59;100.00;61776.25;5025618;28;20220;-83
2022/10/20 04:14:15;;;;;;;24.40;11.43;;;;;;;-141.59;100.00;61776.25;5022476;28;20266;-84
2022/10/20 04:16:42;;;;;;;20.57;11.37;;;;;;;-141.59;100.00;61776.25;5022056;28;20257;-85
2022/10/20 04:19:09;;;;;;;26.60;12.30;;;;;;;-141.59;100.00;61776.25;5051537;28;20199;-85
2022/10/20 04:21:37;;;;;;;28.73;13.57;;;;;;;-141.59;100.00;61776.25;5029858;28;20204;-84
2022/10/20 04:24:06;;;;;;;29.80;13.73;;;;;;;-141.59;100.00;61776.25;5014384;28;20202;-83
2022/10/20 04:26:33;;;;;;;29.83;14.67;;;;;;;-141.59;100.00;61776.25;5021155;28;20213;-84
2022/10/20 04:29:01;;;;;;;35.93;14.90;;;;;;;-141.59;100.00;61776.25;5030028;28;20231;-84
2022/10/20 04:31:29;;;;;;;38.33;13.60;;;;;;;-141.59;100.00;61776.25;5027402;28;20194;-84
2022/10/20 04:33:56;;;;;;;30.43;14.80;;;;;;;-141.59;100.00;61776.25;5031775;28;20213;-85
2022/10/20 04:36:24;;;;;;;30.20;15.17;;;;;;;-141.59;100.00;61776.25;5028078;28;20274;-84
2022/10/20 04:38:51;;;;;;;31.53;14.33;;;;;;;-141.59;100.00;61776.25;5021242;28;20239;-85
2022/10/20 04:41:18;;;;;;;39.90;16.73;;;;;;;-141.59;100.00;61776.25;5030623;28;20207;-85
2022/10/20 04:43:50;;;;;;;38.00;17.53;;;;;;;-141.59;100.00;61776.25;5018875;28;20203;-84
2022/10/20 04:46:18;;;;;;;31.13;15.60;;;;;;;-141.59;100.00;61776.25;5036509;28;20200;-84
2022/10/20 04:48:46;;;;;;;40.97;16.93;;;;;;;-141.59;100.00;61776.25;5016629;28;20282;-85
2022/10/20 04:51:15;;;;;;;40.57;16.70;;;;;;;-141.59;100.00;61776.25;5029244;28;20203;-84
2022/10/20 04:53:42;;;;;;;44.40;16.77;;;;;;;-141.59;100.00;61776.25;5018447;28;20207;-84
2022/10/20 04:56:12;;;;;;;44.93;18.43;;;;;;;-141.59;100.00;61776.25;5020624;28;20264;-84
2022/10/20 04:58:40;;;;;;;44.60;18.70;;;;;;;-141.59;100.00;61776.25;5040972;28;20211;-83
2022/10/20 05:01:09;;;;;;;46.70;20.10;;;;;;;-141.59;100.00;61776.25;5029998;28;20218;-84
2022/10/20 05:03:37;;;;;;;46.57;19.03;;;;;;;-141.59;100.00;61776.25;5020639;28;20198;-85
2022/10/20 05:06:14;;;;;;;55.87;20.83;;;;;;;-141.59;100.00;61776.25;5015907;28;20282;-84
2022/10/20 05:08:45;;;;;;;50.37;19.57;;;;;;;-141.59;100.00;61776.25;5043124;28;20238;-84
2022/10/20 05:11:13;;;;;;;54.60;19.60;;;;;;;-141.59;100.00;61776.25;5027235;28;20218;-84
2022/10/20 05:13:40;;;;;;;44.10;20.17;;;;;;;-141.59;100.00;61776.25;5027082;28;20203;-84
2022/10/20 05:16:08;;;;;;;46.33;19.83;;;;;;;-141.59;100.00;61776.25;5028470;28;20202;-84
2022/10/20 05:18:36;;;;;;;42.20;20.67;;;;;;;-141.59;100.00;61776.25;5024632;28;20194;-84
2022/10/20 05:21:06;;;;;;;45.00;20.17;;;;;;;-141.59;100.00;61776.25;5014211;28;20297;-83
2022/10/20 05:23:34;;;;;;;41.30;17.67;;;;;;;-141.59;100.00;61776.25;5022615;28;20191;-84
2022/10/20 05:26:03;;;;;;;23.03;11.30;;;;;;;-141.59;100.00;61776.25;5032789;28;20214;-84
2022/10/20 05:28:30;;;;;;;11.83;5.27;;;;;;;-141.59;100.00;61776.25;5026893;28;20235;-83
2022/10/20 05:31:01;;;;;;;21.27;10.03;;;;;;;-141.59;100.00;61776.25;5020241;28;20199;-85
2022/10/20 05:33:29;;;;;;;7.80;2.70;;;;;;;-141.59;100.00;61776.25;5026307;28;20188;-84
2022/10/20 05:35:56;;;;;;;6.23;1.97;;;;;;;-141.59;100.00;61776.25;5039651;28;20213;-83
2022/10/20 05:38:24;;;;;;;4.10;1.83;;;;;;;-141.59;100.00;61776.25;5021801;28;20247;-84
2022/10/20 05:40:53;;;;;;;7.20;2.23;;;;;;;-141.59;100.00;61776.25;5051263;28;20206;-84
2022/10/20 05:43:20;;;;;;;6.23;2.00;;;;;;;-141.59;100.00;61776.25;5046681;28;20211;-85
2022/10/20 05:45:54;;;;;;;5.57;1.93;;;;;;;-141.59;100.00;61776.25;5049743;28;20190;-84
2022/10/20 05:48:21;;;;;;;5.68;1.77;;;;;;;-141.59;100.00;61776.25;5026430;28;20200;-82
2022/10/20 05:50:48;;;;;;;4.97;1.90;;;;;;;-141.59;100.00;61776.25;5018087;28;20199;-84
2022/10/20 05:53:15;;;;;;;10.38;2.65;;;;;;;-141.59;100.00;61776.25;5042550;28;20211;-84
2022/10/20 05:55:42;;;;;;;7.03;2.17;;;;;;;-141.59;100.00;61776.25;5026593;28;20207;-84
2022/10/20 05:58:10;;;;;;;5.45;1.90;;;;;;;-141.59;100.00;61776.25;5021390;28;20214;-84
2022/10/20 06:00:40;;;;;;;6.43;2.00;;;;;;;-141.59;100.00;61776.25;5030760;28;20209;-83
2022/10/20 06:03:07;;;;;;;8.27;2.15;;;;;;;-141.59;100.00;61776.25;5021919;28;20245;-84
2022/10/20 06:05:35;;;;;;;8.82;2.47;;;;;;;-141.59;100.00;61776.25;5031404;28;20202;-84
2022/10/20 06:08:02;;;;;;;5.32;1.80;;;;;;;-141.59;100.00;61776.25;5045471;28;20257;-85
2022/10/20 06:10:29;;;;;;;8.68;2.50;;;;;;;-141.59;100.00;61776.25;5044407;28;20230;-84
2022/10/20 06:12:56;;;;;;;7.93;2.28;;;;;;;-141.59;100.00;61776.25;5038898;28;20272;-85
2022/10/20 06:15:24;;;;;;;9.55;2.20;;;;;;;-141.59;100.00;61776.25;5036797;28;20215;-84
2022/10/20 06:17:51;;;;;;;5.30;2.00;;;;;;;-141.59;100.00;61776.25;5027358;28;20224;-83
2022/10/20 06:20:18;;;;;;;5.90;2.03;;;;;;;-141.59;100.00;61776.25;5027527;28;20211;-84
2022/10/20 06:22:45;;;;;;;6.22;2.00;;;;;;;-141.59;100.00;61776.25;5020548;28;20207;-84
2022/10/20 06:25:12;;;;;;;6.55;2.15;;;;;;;-141.59;100.00;61776.25;5029075;28;20207;-84
2022/10/20 06:27:41;;;;;;;10.23;2.45;;;;;;;-141.59;100.00;61776.25;5032828;28;20206;-84
2022/10/20 06:30:09;;;;;;;6.28;2.60;;;;;;;-141.59;100.00;61776.25;5027419;28;20219;-84
2022/10/20 06:32:37;;;;;;;9.57;2.42;;;;;;;-141.59;100.00;61776.25;5020936;28;20211;-84
2022/10/20 06:35:05;;;;;;;5.22;2.35;;;;;;;-141.59;100.00;61776.25;5018391;28;20219;-84
2022/10/20 06:37:34;;;;;;;5.75;2.42;;;;;;;-141.59;100.00;61776.25;5023099;28;20226;-84
2022/10/20 06:40:01;;;;;;;6.45;1.75;;;;;;;-141.59;100.00;61776.25;5028362;28;20267;-84
2022/10/20 06:42:28;;;;;;;6.75;2.75;;;;;;;-141.59;100.00;61776.25;5034112;28;20244;-84
2022/10/20 06:44:57;;;;;;;6.72;2.20;;;;;;;-141.59;100.00;61776.25;5027666;28;20203;-83
2022/10/20 06:47:24;;;;;;;6.85;2.00;;;;;;;-141.59;100.00;61776.25;5030248;28;20215;-83
2022/10/20 06:49:53;;;;;;;7.78;2.25;;;;;;;-141.59;100.00;61776.25;5021712;28;20253;-84
2022/10/20 06:52:20;;;;;;;4.65;1.88;;;;;;;-141.59;100.00;61776.25;5020498;28;20196;-83
2022/10/20 06:54:47;;;;;;;9.93;2.28;;;;;;;-141.59;100.00;61776.25;5031667;28;20195;-84
2022/10/20 06:57:14;;;;;;;5.05;2.15;;;;;;;-141.59;100.00;61776.25;5035113;28;20298;-82
2022/10/20 06:59:41;;;;;;;10.18;2.30;;;;;;;-141.59;100.00;61776.25;5034931;28;20211;-82
2022/10/20 07:02:10;;;;;;;4.13;1.80;;;;;;;-141.59;100.00;61776.25;5021578;28;20202;-81
2022/10/20 07:04:37;;;;;;;8.52;2.08;;;;;;;-141.59;100.00;61776.25;5031802;28;20387;-81
2022/10/20 07:07:07;;;;;;;4.80;2.22;;;;;;;-141.59;100.00;61776.25;5022745;28;20209;-81
2022/10/20 07:09:34;;;;;;;5.63;1.80;;;;;;;-141.59;100.00;61776.25;5022337;28;20219;-82
2022/10/20 07:12:02;;;;;;;7.65;2.17;;;;;;;-141.59;100.00;61776.25;5032997;28;20271;-82
2022/10/20 07:14:29;;;;;;;4.10;2.30;;;;;;;-141.59;100.00;61776.25;5018952;28;20214;-83
2022/10/20 07:16:56;;;;;;;4.90;2.15;;;;;;;-141.59;100.00;61776.25;5026127;28;20238;-82
2022/10/20 07:19:23;;;;;;;4.68;1.95;;;;;;;-141.59;100.00;61776.25;5034992;28;20210;-82
2022/10/20 07:21:50;;;;;;;7.68;2.13;;;;;;;-141.59;100.00;61776.25;5024917;28;20229;-83
2022/10/20 07:24:18;;;;;;;10.48;2.83;;;;;;;-141.59;100.00;61776.25;5017339;28;20204;-83
2022/10/20 07:26:46;;;;;;;6.07;2.28;;;;;;;-141.59;100.00;61776.25;5030868;28;20260;-83
2022/10/20 07:29:13;;;;;;;6.97;2.10;;;;;;;-141.59;100.00;61776.25;5048339;28;20258;-83
2022/10/20 07:31:43;;;;;;;3.88;1.85;;;;;;;-141.59;100.00;61776.25;5038406;28;20210;-83
2022/10/20 07:34:12;;;;;;;6.38;1.90;;;;;;;-141.59;100.00;61776.25;5041616;28;20235;-83
2022/10/20 07:36:42;;;;;;;6.90;1.67;;;;;;;-141.59;100.00;61776.25;5034082;28;20203;-83
2022/10/20 07:39:12;;;;;;;6.43;2.00;;;;;;;-141.59;100.00;61776.25;5032729;28;20203;-82
2022/10/20 07:41:42;;;;;;;4.60;1.80;;;;;;;-141.59;100.00;61776.25;5029950;28;20258;-82
2022/10/20 07:44:10;;;;;;;5.90;2.15;;;;;;;-141.59;100.00;61776.25;5032393;28;20260;-82
2022/10/20 07:46:37;;;;;;;6.07;2.22;;;;;;;-141.59;100.00;61776.25;5032092;28;20198;-83
2022/10/20 07:49:05;;;;;;;6.60;2.10;;;;;;;-141.59;100.00;61776.25;5028443;28;20206;-83
2022/10/20 07:51:33;;;;;;;5.88;1.98;;;;;;;-141.59;100.00;61776.25;5022472;28;20273;-83
2022/10/20 07:54:03;;;;;;;6.80;1.85;;;;;;;-141.59;100.00;61776.25;5030012;28;20207;-82
2022/10/20 07:56:31;;;;;;;4.55;2.17;;;;;;;-141.59;100.00;61776.25;5031422;28;20203;-82
2022/10/20 07:59:03;;;;;;;10.13;4.75;;;;;;;-141.59;100.00;61776.25;5015506;28;20294;-83
2022/10/20 08:01:30;;;;;;;17.08;10.48;;;;;;;-141.59;100.00;61776.25;5034233;28;20261;-83
2022/10/20 08:04:00;;;;;;;16.95;11.35;;;;;;;-141.59;100.00;61776.25;5019255;28;20207;-82
2022/10/20 08:06:27;;;;;;;21.48;12.43;;;;;;;-141.59;100.00;61776.25;5017010;28;20206;-82
2022/10/20 08:08:54;;;;;;;18.95;11.50;;;;;;;-141.59;100.00;61776.25;5033014;28;20207;-82
2022/10/20 08:11:23;;;;;;;22.15;12.05;;;;;;;-141.59;100.00;61776.25;5021614;28;20281;-82
2022/10/20 08:13:50;;;;;;;21.97;11.77;;;;;;;-141.59;100.00;61776.25;5016897;28;20218;-82
2022/10/20 08:16:18;;;;;;;20.57;12.90;;;;;;;-141.59;100.00;61776.25;5025340;28;20198;-82
2022/10/20 08:18:46;;;;;;;21.37;12.47;;;;;;;-141.59;100.00;61776.25;5020840;28;20199;-82
2022/10/20 08:21:16;;;;;;;23.03;12.90;;;;;;;-141.59;100.00;61776.25;5020216;28;20203;-82
2022/10/20 08:23:45;;;;;;;20.00;12.97;;;;;;;-141.59;100.00;61776.25;5031662;28;20222;-82
2022/10/20 08:26:17;;;;;;;22.37;13.47;;;;;;;-141.59;100.00;61776.25;5021895;28;20217;-82
2022/10/20 08:28:44;;;;;;;19.33;12.60;;;;;;;-141.59;100.00;61776.25;5019676;28;20209;-82
2022/10/20 08:31:11;;;;;;;22.53;13.93;;;;;;;-141.59;100.00;61776.25;5020704;28;20226;-82
2022/10/20 08:33:41;;;;;;;25.07;12.93;;;;;;;-141.59;100.00;61776.25;5022622;28;20626;-82
2022/10/20 08:36:11;;;;;;;24.97;14.03;;;;;;;-141.59;100.00;61776.25;5020084;28;20202;-82
2022/10/20 08:38:39;;;;;;;24.87;14.23;;;;;;;-141.59;100.00;61776.25;5019958;28;20870;-82
2022/10/20 08:41:16;;;;;;;23.63;14.90;;;;;;;-141.59;100.00;61776.25;5017733;28;20211;-82
2022/10/20 08:43:45;;;;;;;23.43;15.10;;;;;;;-141.59;100.00;61776.25;5035465;28;20215;-82
2022/10/20 08:46:14;;;;;;;21.40;13.70;;;;;;;-141.59;100.00;61776.25;5030056;28;20210;-82
2022/10/20 08:48:45;;;;;;;23.43;14.63;;;;;;;-141.59;100.00;61776.25;5032846;28;20294;-82
2022/10/20 08:51:18;;;;;;;25.83;14.67;;;;;;;-141.59;100.00;61776.25;5037491;28;20325;-82
2022/10/20 08:53:46;;;;;;;25.80;14.10;;;;;;;-141.59;100.00;61776.25;5017763;28;20309;-82
2022/10/20 08:56:14;;;;;;;24.57;13.13;;;;;;;-141.59;100.00;61776.25;5020729;28;20205;-82
2022/10/20 08:58:43;;;;;;;20.93;13.03;;;;;;;-141.59;100.00;61776.25;5019885;28;20217;-82
2022/10/20 09:01:19;;;;;;;21.30;13.53;;;;;;;-141.59;100.00;61776.25;5045623;28;20201;-82
2022/10/20 09:03:51;;;;;;;22.23;13.37;;;;;;;-141.59;100.00;61776.25;5036393;28;20201;-83
2022/10/20 09:06:18;;;;;;;22.20;13.40;;;;;;;-141.59;100.00;61776.25;5031580;28;20221;-83
2022/10/20 09:08:47;;;;;;;21.17;12.83;;;;;;;-141.59;100.00;61776.25;5026072;28;20262;-83
2022/10/20 09:11:20;;;;;;;25.80;13.90;;;;;;;-141.59;100.00;61776.25;5024437;28;20234;-83
2022/10/20 09:13:47;;;;;;;19.27;13.43;;;;;;;-141.59;100.00;61776.25;5035753;28;20258;-83
2022/10/20 09:16:21;;;;;;;23.77;14.83;;;;;;;-141.59;100.00;61776.25;5046828;28;20210;-83
2022/10/20 09:18:56;;;;;;;25.07;13.87;;;;;;;-141.59;100.00;61776.25;5040627;28;20331;-82
2022/10/20 09:21:24;;;;;;;24.73;14.07;;;;;;;-141.59;100.00;61776.25;5020919;28;20198;-82
2022/10/20 09:23:54;;;;;;;26.50;14.30;;;;;;;-141.59;100.00;61776.25;5023145;28;20203;-83
2022/10/20 09:26:32;;;;;;;24.30;13.33;;;;;;;-141.59;100.00;61776.25;5020684;28;20194;-84
2022/10/20 09:29:06;;;;;;;23.37;13.83;;;;;;;-141.59;100.00;61776.25;5034806;28;20222;-83
2022/10/20 09:31:36;;;;;;;26.20;15.67;;;;;;;-141.59;100.00;61776.25;5031694;28;20217;-82
2022/10/20 09:34:21;;;;;;;22.03;13.77;;;;;;;-141.59;100.00;61776.25;5035570;28;20226;-85
2022/10/20 09:36:49;;;;;;;22.87;13.53;;;;;;;-141.59;100.00;61776.25;5028078;28;20211;-84
2022/10/20 09:39:20;;;;;;;18.13;12.77;;;;;;;-141.59;100.00;61776.25;5026679;28;20196;-82
2022/10/20 09:41:49;;;;;;;24.93;12.60;;;;;;;-141.59;100.00;61776.25;5016482;28;20221;-83
2022/10/20 09:44:22;;;;;;;18.47;13.33;;;;;;;-141.59;100.00;61776.25;5019071;28;20206;-83
2022/10/20 09:46:52;;;;;;;18.07;12.97;;;;;;;-141.59;100.00;61776.25;5030891;28;20206;-83
2022/10/20 09:49:30;;;;;;;24.50;13.70;;;;;;;-141.59;100.00;61776.25;5020095;28;20212;-83
2022/10/20 09:51:59;;;;;;;22.90;12.07;;;;;;;-141.59;100.00;61776.25;5024053;28;20227;-83
2022/10/20 09:54:28;;;;;;;23.67;12.73;;;;;;;-141.59;100.00;61776.25;5032999;28;20215;-83
2022/10/20 09:57:04;;;;;;;23.23;13.13;;;;;;;-141.59;100.00;61776.25;5020483;28;20333;-84
2022/10/20 09:59:34;;;;;;;21.73;12.90;;;;;;;-141.59;100.00;61776.25;5020354;28;20269;-83
2022/10/20 10:02:06;;;;;;;20.15;12.70;;;;;;;-141.59;100.00;61776.25;5032204;28;20290;-83
2022/10/20 10:04:36;;;;;;;21.03;12.57;;;;;;;-141.59;100.00;61776.25;5036522;28;20205;-83
2022/10/20 10:07:05;;;;;;;20.77;12.55;;;;;;;-141.59;100.00;61776.25;5034047;28;20206;-82
2022/10/20 10:09:35;;;;;;;18.90;12.80;;;;;;;-141.59;100.00;61776.25;5016551;28;20218;-83
2022/10/20 10:12:04;;;;;;;20.37;13.10;;;;;;;-141.59;100.00;61776.25;5015825;28;20229;-83
2022/10/20 10:14:35;;;;;;;17.37;12.30;;;;;;;-141.59;100.00;61776.25;5022269;28;21663;-83
2022/10/20 10:17:02;;;;;;;16.93;12.33;;;;;;;-141.59;100.00;61776.25;5031084;28;20239;-83
2022/10/20 10:19:32;;;;;;;22.57;12.37;;;;;;;-141.59;100.00;61776.25;5040780;28;20204;-83
2022/10/20 10:22:03;;;;;;;17.58;10.90;;;;;;;-141.59;100.00;61776.25;5032369;28;20199;-83
2022/10/20 10:24:38;;;;;;;18.83;10.73;;;;;;;-141.59;100.00;61776.25;5024551;28;20303;-84
2022/10/20 10:27:21;;;;;;;17.77;11.43;;;;;;;-141.59;100.00;61776.25;5022050;28;20215;-83
2022/10/20 10:29:48;;;;;;;18.80;11.10;;;;;;;-141.59;100.00;61776.25;5027779;28;20199;-83
2022/10/20 10:32:17;;;;;;;19.65;12.00;;;;;;;-141.59;100.00;61776.25;5019759;28;20206;-83
2022/10/20 10:35:12;;;;;;;20.45;12.10;;;;;;;-141.59;100.00;61776.25;5030709;28;20311;-83
2022/10/20 10:37:44;;;;;;;18.43;11.83;;;;;;;-141.59;100.00;61776.25;5013465;28;20357;-83
2022/10/20 10:40:16;;;;;;;20.75;12.27;;;;;;;-141.59;100.00;61776.25;5023105;28;20210;-83
2022/10/20 10:43:09;;;;;;;18.23;12.10;;;;;;;-141.59;100.00;61776.25;5016753;28;20223;-83
2022/10/20 10:45:45;;;;;;;20.75;13.18;;;;;;;-141.59;100.00;61776.25;5017697;28;20378;-83
2022/10/20 10:48:37;;;;;;;22.15;13.43;;;;;;;-141.59;100.00;61776.25;5033213;28;20206;-83
2022/10/20 10:51:10;;;;;;;22.90;12.65;;;;;;;-141.59;100.00;61776.25;5033652;28;20221;-83
2022/10/20 10:53:55;;;;;;;20.42;12.45;;;;;;;-141.59;100.00;61776.25;5019441;28;20210;-83
2022/10/20 10:56:32;;;;;;;22.95;12.55;;;;;;;-141.59;100.00;61776.25;5014559;28;20206;-83
2022/10/20 10:59:06;;;;;;;23.33;12.82;;;;;;;-141.59;100.00;61776.25;5032339;28;20202;-83
2022/10/20 11:01:52;;;;;;;21.13;12.07;;;;;;;-141.59;100.00;61776.25;5035548;28;20207;-83
2022/10/20 11:04:36;;;;;;;20.10;12.38;;;;;;;-141.59;100.00;61776.25;5038830;28;20215;-83
2022/10/20 11:07:11;;;;;;;19.33;12.23;;;;;;;-141.59;100.00;61776.25;5020364;28;20205;-83
2022/10/20 11:09:54;;;;;;;18.08;12.00;;;;;;;-141.59;100.00;61776.25;5018346;28;20317;-84
2022/10/20 11:12:39;;;;;;;20.67;12.55;;;;;;;-141.59;100.00;61776.25;5018661;28;20230;-83
2022/10/20 11:15:22;;;;;;;19.20;12.40;;;;;;;-141.59;100.00;61776.25;5030012;28;20273;-83